Time;durP1;ratioP1;P1;durP2;ratioP2;P2;SDS_P1;SDS_P2;PMS_P1;PMS_P2;Temp;Humidity;BMP_temperature;BMP_pressure;BME280_temperature;BME280_humidity;BME280_pressure;Samples;Min_cycle;Max_cycle;Signal;HPM_P1;HPM_P2
2022/11/15 00:00:01;;;;;;;32.23;16.17;;;;;;;;;;5019793;28;20501;-70
2022/11/15 00:02:26;;;;;;;33.70;16.83;;;;;;;;;;5013882;28;20712;-70
2022/11/15 00:04:51;;;;;;;34.80;17.33;;;;;;;;;;5015060;28;20033;-71
2022/11/15 00:07:17;;;;;;;30.80;16.30;;;;;;;;;;5005927;28;20026;-69
2022/11/15 00:09:42;;;;;;;33.87;16.03;;;;;;;;;;5010592;28;20041;-70
2022/11/15 00:12:07;;;;;;;29.53;16.00;;;;;;;;;;5013158;28;20033;-70
2022/11/15 00:14:32;;;;;;;33.87;17.40;;;;;;;;;;5016941;28;20124;-70
2022/11/15 00:16:57;;;;;;;33.13;16.60;;;;;;;;;;5015412;28;20480;-71
2022/11/15 00:19:23;;;;;;;33.33;17.97;;;;;;;;;;5014271;28;20375;-70
2022/11/15 00:21:48;;;;;;;34.80;18.63;;;;;;;;;;5012579;28;20029;-70
2022/11/15 00:24:13;;;;;;;33.07;16.63;;;;;;;;;;5015610;28;20313;-70
2022/11/15 00:26:38;;;;;;;32.80;17.13;;;;;;;;;;5011190;28;20377;-70
2022/11/15 00:29:04;;;;;;;31.40;16.83;;;;;;;;;;4996382;28;20065;-70
2022/11/15 00:31:29;;;;;;;32.83;16.37;;;;;;;;;;5011983;28;20033;-71
2022/11/15 00:33:54;;;;;;;30.80;15.70;;;;;;;;;;5021441;28;20848;-70
2022/11/15 00:36:19;;;;;;;30.20;16.07;;;;;;;;;;5013588;28;20290;-70
2022/11/15 00:38:45;;;;;;;32.03;16.17;;;;;;;;;;5009968;28;20293;-72
2022/11/15 00:41:10;;;;;;;29.43;16.07;;;;;;;;;;5012821;28;20061;-72
2022/11/15 00:43:35;;;;;;;29.92;16.10;;;;;;;;;;5010698;28;20033;-72
2022/11/15 00:46:02;;;;;;;29.02;15.38;;;;;;;;;;4994910;28;20025;-72
2022/11/15 00:48:27;;;;;;;30.98;15.90;;;;;;;;;;4998018;28;20037;-72
2022/11/15 00:50:52;;;;;;;28.48;15.35;;;;;;;;;;5007596;28;20030;-72
2022/11/15 00:53:17;;;;;;;30.97;16.10;;;;;;;;;;5009998;28;20471;-72
2022/11/15 00:55:43;;;;;;;30.03;16.17;;;;;;;;;;5015143;28;20022;-72
2022/11/15 00:58:08;;;;;;;32.17;16.63;;;;;;;;;;5012199;28;20029;-72
2022/11/15 01:00:33;;;;;;;32.00;16.48;;;;;;;;;;5013655;28;20038;-71
2022/11/15 01:03:00;;;;;;;32.50;16.40;;;;;;;;;;5012438;28;20033;-72
2022/11/15 01:05:25;;;;;;;31.25;16.33;;;;;;;;;;5012020;28;20068;-72
2022/11/15 01:07:54;;;;;;;31.27;15.97;;;;;;;;;;5009417;28;20539;-72
2022/11/15 01:10:20;;;;;;;29.55;15.88;;;;;;;;;;5009147;28;20033;-72
2022/11/15 01:12:45;;;;;;;28.85;15.85;;;;;;;;;;5009938;28;20025;-72
2022/11/15 01:15:11;;;;;;;28.73;15.80;;;;;;;;;;4991201;28;20034;-74
2022/11/15 01:17:36;;;;;;;32.37;16.90;;;;;;;;;;5010688;28;20030;-73
2022/11/15 01:20:01;;;;;;;31.93;15.50;;;;;;;;;;4994867;28;20275;-73
2022/11/15 01:22:27;;;;;;;30.27;16.77;;;;;;;;;;5010402;28;20026;-74
2022/11/15 01:24:52;;;;;;;32.10;16.95;;;;;;;;;;5013634;28;20655;-73
2022/11/15 01:27:17;;;;;;;33.20;16.77;;;;;;;;;;4991331;28;20388;-73
2022/11/15 01:29:42;;;;;;;29.13;15.60;;;;;;;;;;4990453;28;20572;-73
2022/11/15 01:32:08;;;;;;;31.07;15.87;;;;;;;;;;5006900;28;20117;-72
2022/11/15 01:34:33;;;;;;;32.97;17.03;;;;;;;;;;4989058;28;20046;-73
2022/11/15 01:36:58;;;;;;;32.57;16.30;;;;;;;;;;5007476;28;20103;-72
2022/11/15 01:39:24;;;;;;;32.80;16.02;;;;;;;;;;5005216;28;20286;-71
2022/11/15 01:41:49;;;;;;;32.15;16.75;;;;;;;;;;4989917;28;20044;-73
2022/11/15 01:44:33;;;;;;;33.57;16.07;;;;;;;;;;4995666;28;20022;-73
2022/11/15 01:47:00;;;;;;;32.55;17.02;;;;;;;;;;5008452;28;20036;-73
2022/11/15 01:49:26;;;;;;;35.45;17.70;;;;;;;;;;5007878;28;20070;-73
2022/11/15 01:51:52;;;;;;;32.72;16.83;;;;;;;;;;5013162;28;20075;-73
2022/11/15 01:54:19;;;;;;;32.20;16.80;;;;;;;;;;5009181;28;20435;-73
2022/11/15 01:57:05;;;;;;;30.42;16.05;;;;;;;;;;5012393;28;20117;-72
2022/11/15 01:59:30;;;;;;;31.65;16.30;;;;;;;;;;5009061;28;20083;-72
2022/11/15 02:01:56;;;;;;;31.10;16.30;;;;;;;;;;5005682;28;20492;-73
2022/11/15 02:04:25;;;;;;;32.72;16.80;;;;;;;;;;5012465;28;20021;-73
2022/11/15 02:06:50;;;;;;;;;;;;;;;;;;5007195;28;20515;-72
2022/11/15 02:09:16;;;;;;;30.88;15.10;;;;;;;;;;5009810;28;20335;-73
2022/11/15 02:11:43;;;;;;;31.77;16.77;;;;;;;;;;5009579;28;20035;-73
2022/11/15 02:14:09;;;;;;;28.67;15.57;;;;;;;;;;5006077;28;20041;-72
2022/11/15 02:16:58;;;;;;;32.58;16.60;;;;;;;;;;5008037;28;20030;-73
2022/11/15 02:19:23;;;;;;;34.08;17.85;;;;;;;;;;5011456;28;20106;-73
2022/11/15 02:22:07;;;;;;;33.37;17.03;;;;;;;;;;5007849;28;20097;-72
2022/11/15 02:24:41;;;;;;;35.60;17.98;;;;;;;;;;5002431;28;20022;-72
2022/11/15 02:27:25;;;;;;;31.08;16.05;;;;;;;;;;5006191;28;20030;-72
2022/11/15 02:30:06;;;;;;;30.00;15.80;;;;;;;;;;5008598;28;20052;-72
2022/11/15 02:32:50;;;;;;;34.03;16.92;;;;;;;;;;5004709;28;20179;-72
2022/11/15 02:35:24;;;;;;;31.23;16.25;;;;;;;;;;5003667;28;20034;-72
2022/11/15 02:37:59;;;;;;;29.42;16.23;;;;;;;;;;5002859;28;20028;-71
2022/11/15 02:40:43;;;;;;;30.05;16.27;;;;;;;;;;4997862;28;20500;-73
2022/11/15 02:46:07;;;;;;;29.80;16.35;;;;;;;;;;5001233;28;20121;-72
2022/11/15 02:48:33;;;;;;;28.77;15.75;;;;;;;;;;5006103;28;20506;-72
2022/11/15 02:50:59;;;;;;;35.17;17.05;;;;;;;;;;4990877;28;20626;-73
2022/11/15 02:53:25;;;;;;;31.00;16.10;;;;;;;;;;5008191;28;20105;-72
2022/11/15 02:55:51;;;;;;;33.58;16.77;;;;;;;;;;5010691;28;20408;-72
2022/11/15 02:58:22;;;;;;;30.17;15.77;;;;;;;;;;5009199;28;20017;-72
2022/11/15 03:00:57;;;;;;;31.70;16.45;;;;;;;;;;5008545;28;21037;-73
2022/11/15 03:03:45;;;;;;;34.08;15.77;;;;;;;;;;5000524;28;20045;-73
2022/11/15 03:06:23;;;;;;;32.17;16.15;;;;;;;;;;5004012;28;20054;-73
2022/11/15 03:08:48;;;;;;;32.50;15.80;;;;;;;;;;5011978;28;20026;-73
2022/11/15 03:11:15;;;;;;;31.97;16.47;;;;;;;;;;5012959;28;20040;-71
2022/11/15 03:13:52;;;;;;;36.38;16.58;;;;;;;;;;4991460;28;20472;-72
2022/11/15 03:16:17;;;;;;;29.38;15.43;;;;;;;;;;5010063;28;20490;-73
2022/11/15 03:18:45;;;;;;;27.00;15.27;;;;;;;;;;4990848;28;20115;-73
2022/11/15 03:21:11;;;;;;;28.30;15.05;;;;;;;;;;5007548;28;20766;-71
2022/11/15 03:23:38;;;;;;;34.08;16.33;;;;;;;;;;5010585;28;20018;-73
2022/11/15 03:26:06;;;;;;;32.15;16.00;;;;;;;;;;5006190;28;20084;-72
2022/11/15 03:28:38;;;;;;;32.92;16.10;;;;;;;;;;5004048;28;20029;-73
2022/11/15 03:31:46;;;;;;;29.65;15.30;;;;;;;;;;5006724;28;20473;-72
2022/11/15 03:33:53;;;;;;;36.03;17.15;;;;;;;;;;5002863;28;20049;-71
2022/11/15 03:36:19;;;;;;;31.55;16.08;;;;;;;;;;5003955;28;20492;-71
2022/11/15 03:38:44;;;;;;;31.65;16.38;;;;;;;;;;5008754;28;20109;-72
2022/11/15 03:41:18;;;;;;;27.75;15.48;;;;;;;;;;5007301;28;20152;-72
2022/11/15 03:43:55;;;;;;;33.55;16.55;;;;;;;;;;5010607;28;20431;-70
2022/11/15 03:46:26;;;;;;;34.40;16.77;;;;;;;;;;5007917;28;20030;-72
2022/11/15 03:48:58;;;;;;;31.85;16.08;;;;;;;;;;4987353;28;20038;-71
2022/11/15 03:51:23;;;;;;;31.33;15.23;;;;;;;;;;5004776;28;20120;-72
2022/11/15 03:53:48;;;;;;;29.10;15.52;;;;;;;;;;5010389;28;20113;-71
2022/11/15 03:56:13;;;;;;;29.43;15.23;;;;;;;;;;5002355;28;20018;-73
2022/11/15 03:58:39;;;;;;;27.90;15.60;;;;;;;;;;4990109;28;20061;-71
2022/11/15 04:01:04;;;;;;;30.50;14.85;;;;;;;;;;5006842;28;20303;-70
2022/11/15 04:03:29;;;;;;;28.33;14.50;;;;;;;;;;5013163;28;20030;-71
2022/11/15 04:05:54;;;;;;;29.30;16.00;;;;;;;;;;5007593;28;20105;-69
2022/11/15 04:08:19;;;;;;;28.03;15.17;;;;;;;;;;4992845;28;20053;-69
2022/11/15 04:10:45;;;;;;;27.53;15.00;;;;;;;;;;5004426;28;20338;-70
2022/11/15 04:13:10;;;;;;;33.47;16.13;;;;;;;;;;5013466;28;20036;-70
2022/11/15 04:15:35;;;;;;;28.40;15.37;;;;;;;;;;5003337;28;20060;-70
2022/11/15 04:18:00;;;;;;;25.75;14.30;;;;;;;;;;5013740;28;20053;-70
2022/11/15 04:25:59;;;;;;;24.92;14.02;;;;;;;;;;5015358;28;20563;-71
2022/11/15 04:28:24;;;;;;;27.00;14.57;;;;;;;;;;5009910;28;20404;-71
2022/11/15 04:30:49;;;;;;;29.00;15.18;;;;;;;;;;5015467;28;20038;-71
2022/11/15 04:33:15;;;;;;;27.07;14.47;;;;;;;;;;5012954;28;20076;-71
2022/11/15 04:35:40;;;;;;;28.15;15.18;;;;;;;;;;5011168;28;20745;-69
2022/11/15 04:38:07;;;;;;;26.80;14.10;;;;;;;;;;5008437;28;20585;-70
2022/11/15 04:40:32;;;;;;;26.75;14.70;;;;;;;;;;5009092;28;20105;-71
2022/11/15 04:42:57;;;;;;;29.45;15.30;;;;;;;;;;5011888;28;20121;-69
2022/11/15 04:45:22;;;;;;;31.13;15.67;;;;;;;;;;5010224;28;20534;-71
2022/11/15 04:47:48;;;;;;;30.60;15.03;;;;;;;;;;5009519;28;20029;-71
2022/11/15 04:50:13;;;;;;;26.73;14.23;;;;;;;;;;5012422;28;20305;-71
2022/11/15 04:52:43;;;;;;;26.27;15.15;;;;;;;;;;5012228;28;20029;-71
2022/11/15 04:55:11;;;;;;;29.17;14.77;;;;;;;;;;4995864;28;20072;-71
2022/11/15 04:57:36;;;;;;;28.80;14.65;;;;;;;;;;5009865;28;20033;-70
2022/11/15 05:00:06;;;;;;;28.40;14.65;;;;;;;;;;5015463;28;20021;-71
2022/11/15 05:05:16;;;;;;;27.13;14.35;;;;;;;;;;5013030;28;20564;-71
2022/11/15 05:07:41;;;;;;;29.83;14.17;;;;;;;;;;4978441;28;20030;-70
2022/11/15 05:10:06;;;;;;;30.23;14.67;;;;;;;;;;5012553;28;20026;-71
2022/11/15 05:12:31;;;;;;;36.53;15.98;;;;;;;;;;5009289;28;20387;-71
2022/11/15 05:14:57;;;;;;;32.20;15.43;;;;;;;;;;5007266;28;20088;-70
2022/11/15 05:17:22;;;;;;;33.70;15.98;;;;;;;;;;5011311;28;20036;-70
2022/11/15 05:19:47;;;;;;;28.67;14.90;;;;;;;;;;4999908;28;20032;-70
2022/11/15 05:22:12;;;;;;;32.23;14.93;;;;;;;;;;5011328;28;20066;-71
2022/11/15 05:24:38;;;;;;;34.20;15.30;;;;;;;;;;5007629;28;20050;-72
2022/11/15 05:27:03;;;;;;;28.52;14.15;;;;;;;;;;4994096;28;20065;-71
2022/11/15 05:29:28;;;;;;;30.80;16.33;;;;;;;;;;5011389;28;20111;-71
2022/11/15 05:31:53;;;;;;;28.90;14.47;;;;;;;;;;5006144;28;20037;-69
2022/11/15 05:34:21;;;;;;;33.40;14.90;;;;;;;;;;5012758;28;20026;-70
2022/11/15 05:36:46;;;;;;;30.13;15.15;;;;;;;;;;4986823;28;20126;-70
2022/11/15 05:39:11;;;;;;;30.97;15.37;;;;;;;;;;4996016;28;20058;-70
2022/11/15 05:41:39;;;;;;;34.33;15.10;;;;;;;;;;5003218;28;20069;-71
2022/11/15 05:44:06;;;;;;;30.17;14.93;;;;;;;;;;5012283;28;20290;-70
2022/11/15 05:46:33;;;;;;;29.90;15.80;;;;;;;;;;5007416;28;20022;-71
2022/11/15 05:48:58;;;;;;;31.20;15.95;;;;;;;;;;5008968;28;20034;-70
2022/11/15 05:51:24;;;;;;;31.90;15.20;;;;;;;;;;5010896;28;20068;-70
2022/11/15 05:53:50;;;;;;;32.35;15.15;;;;;;;;;;5012322;28;20037;-71
2022/11/15 05:56:15;;;;;;;32.25;15.00;;;;;;;;;;4984655;28;20058;-70
2022/11/15 05:58:41;;;;;;;32.95;14.98;;;;;;;;;;5008330;28;20436;-70
2022/11/15 06:01:07;;;;;;;33.35;15.45;;;;;;;;;;5007031;28;20057;-71
2022/11/15 06:03:32;;;;;;;31.88;15.18;;;;;;;;;;5007783;28;20109;-70
2022/11/15 06:05:57;;;;;;;35.30;15.97;;;;;;;;;;5007651;28;20041;-70
2022/11/15 06:08:22;;;;;;;31.50;13.90;;;;;;;;;;5014581;28;20026;-71
2022/11/15 06:10:48;;;;;;;33.27;14.93;;;;;;;;;;5006418;28;20036;-71
2022/11/15 06:13:13;;;;;;;34.10;15.13;;;;;;;;;;5012602;28;20489;-70
2022/11/15 06:15:38;;;;;;;29.92;15.55;;;;;;;;;;5005073;28;20202;-70
2022/11/15 06:18:04;;;;;;;31.10;15.00;;;;;;;;;;5006027;28;20030;-70
2022/11/15 06:20:29;;;;;;;36.10;15.18;;;;;;;;;;5002805;28;20283;-70
2022/11/15 06:22:58;;;;;;;30.13;15.70;;;;;;;;;;5012442;28;20022;-70
2022/11/15 06:25:24;;;;;;;34.33;15.80;;;;;;;;;;5009303;28;20496;-71
2022/11/15 06:27:53;;;;;;;31.58;15.15;;;;;;;;;;5010278;28;20038;-70
2022/11/15 06:30:18;;;;;;;23.70;11.57;;;;;;;;;;5003818;28;20494;-71
2022/11/15 06:32:43;;;;;;;30.98;15.13;;;;;;;;;;5010464;28;20030;-71
2022/11/15 06:35:09;;;;;;;29.60;14.80;;;;;;;;;;5003350;28;20034;-71
2022/11/15 06:37:34;;;;;;;29.63;14.77;;;;;;;;;;5004472;28;20045;-72
2022/11/15 06:39:59;;;;;;;34.57;15.57;;;;;;;;;;5005552;28;20041;-71
2022/11/15 06:42:24;;;;;;;36.57;16.57;;;;;;;;;;5004912;28;20353;-71
2022/11/15 06:44:49;;;;;;;32.03;15.33;;;;;;;;;;5006556;28;20092;-71
2022/11/15 06:47:15;;;;;;;33.45;16.45;;;;;;;;;;5005441;28;20030;-70
2022/11/15 06:49:40;;;;;;;35.20;16.17;;;;;;;;;;5006467;28;20033;-72
2022/11/15 06:52:05;;;;;;;35.35;15.93;;;;;;;;;;5004329;28;20030;-71
2022/11/15 06:54:31;;;;;;;37.22;16.88;;;;;;;;;;5007013;28;20026;-71
2022/11/15 06:56:56;;;;;;;41.63;16.40;;;;;;;;;;5005013;28;20029;-71
2022/11/15 06:59:21;;;;;;;32.53;17.00;;;;;;;;;;5005589;28;20026;-70
2022/11/15 07:01:46;;;;;;;31.40;16.70;;;;;;;;;;5007458;28;20107;-71
2022/11/15 07:04:11;;;;;;;33.30;16.00;;;;;;;;;;5009091;28;20022;-71
2022/11/15 07:06:37;;;;;;;33.83;16.10;;;;;;;;;;5011913;28;20133;-70
2022/11/15 07:09:03;;;;;;;32.67;16.63;;;;;;;;;;5008823;28;20057;-70
2022/11/15 07:11:28;;;;;;;33.83;16.17;;;;;;;;;;5012625;28;20577;-71
2022/11/15 07:13:53;;;;;;;34.10;16.70;;;;;;;;;;5006226;28;20041;-72
2022/11/15 07:16:19;;;;;;;33.90;16.80;;;;;;;;;;5009711;28;20279;-71
2022/11/15 07:18:44;;;;;;;31.95;17.10;;;;;;;;;;5009762;28;20269;-72
2022/11/15 07:21:10;;;;;;;28.73;15.57;;;;;;;;;;5004525;28;20076;-70
2022/11/15 07:23:37;;;;;;;31.70;15.60;;;;;;;;;;5010142;28;20029;-73
2022/11/15 07:26:02;;;;;;;31.17;16.15;;;;;;;;;;5015735;28;20018;-74
2022/11/15 07:28:28;;;;;;;30.30;16.27;;;;;;;;;;5017400;28;20026;-74
2022/11/15 07:30:53;;;;;;;36.40;17.50;;;;;;;;;;5021092;28;20785;-74
2022/11/15 07:33:19;;;;;;;33.63;15.65;;;;;;;;;;5018318;28;20038;-74
2022/11/15 07:35:48;;;;;;;31.33;15.68;;;;;;;;;;5004403;28;20372;-75
2022/11/15 07:38:14;;;;;;;35.47;16.48;;;;;;;;;;5023243;28;20022;-75
2022/11/15 07:40:39;;;;;;;40.83;17.00;;;;;;;;;;4999585;28;20045;-76
2022/11/15 07:43:05;;;;;;;33.55;16.70;;;;;;;;;;5034310;28;20030;-75
2022/11/15 07:45:33;;;;;;;35.63;16.52;;;;;;;;;;5028246;28;20021;-75
2022/11/15 07:47:58;;;;;;;34.13;17.30;;;;;;;;;;5023738;28;20046;-75
2022/11/15 07:50:24;;;;;;;35.17;18.38;;;;;;;;;;5024852;28;20048;-76
2022/11/15 07:52:54;;;;;;;34.90;17.92;;;;;;;;;;5006758;28;20508;-74
2022/11/15 07:55:19;;;;;;;43.88;18.42;;;;;;;;;;5007852;28;20077;-74
2022/11/15 07:57:44;;;;;;;37.87;18.57;;;;;;;;;;5007501;28;20053;-74
2022/11/15 08:00:10;;;;;;;38.00;16.53;;;;;;;;;;5008048;28;20052;-74
2022/11/15 08:02:35;;;;;;;33.47;16.77;;;;;;;;;;5011320;28;20030;-73
2022/11/15 08:05:00;;;;;;;36.90;17.13;;;;;;;;;;5009651;28;20053;-73
2022/11/15 08:07:28;;;;;;;33.77;16.73;;;;;;;;;;4992692;28;20291;-74
2022/11/15 08:09:54;;;;;;;36.85;17.15;;;;;;;;;;5014198;28;20814;-73
2022/11/15 08:12:19;;;;;;;33.25;16.30;;;;;;;;;;5007241;28;20491;-73
2022/11/15 08:14:45;;;;;;;36.10;17.67;;;;;;;;;;5008375;28;20034;-74
2022/11/15 08:17:10;;;;;;;36.70;16.67;;;;;;;;;;5006942;28;20400;-73
2022/11/15 08:19:35;;;;;;;28.43;15.77;;;;;;;;;;5013417;28;20031;-73
2022/11/15 08:22:00;;;;;;;36.00;16.33;;;;;;;;;;5012262;28;20038;-73
2022/11/15 08:24:26;;;;;;;32.93;17.73;;;;;;;;;;5005756;28;20109;-73
2022/11/15 08:26:51;;;;;;;36.03;17.35;;;;;;;;;;5009582;28;20538;-74
2022/11/15 08:29:16;;;;;;;39.87;17.30;;;;;;;;;;5010239;28;20034;-73
2022/11/15 08:31:41;;;;;;;31.77;17.00;;;;;;;;;;5006327;28;20045;-71
2022/11/15 08:34:07;;;;;;;33.60;17.08;;;;;;;;;;5012152;28;20037;-72
2022/11/15 08:36:32;;;;;;;31.47;16.53;;;;;;;;;;5004791;28;20061;-72
2022/11/15 08:38:57;;;;;;;35.70;16.27;;;;;;;;;;5013872;28;20281;-73
2022/11/15 08:41:27;;;;;;;32.03;16.30;;;;;;;;;;5005779;28;20312;-73
2022/11/15 08:43:53;;;;;;;30.77;16.75;;;;;;;;;;5009939;28;20275;-73
2022/11/15 08:46:18;;;;;;;33.90;16.52;;;;;;;;;;5013452;28;20083;-72
2022/11/15 08:48:44;;;;;;;28.77;15.35;;;;;;;;;;5006328;28;20021;-70
2022/11/15 08:51:09;;;;;;;30.90;15.63;;;;;;;;;;5006507;28;20030;-72
2022/11/15 08:53:34;;;;;;;29.85;15.77;;;;;;;-144.91;nan;100787.03;4992437;28;20057;-72
2022/11/15 08:56:00;;;;;;;34.75;17.15;;;;;;;;;;5006521;28;20029;-72
2022/11/15 08:58:25;;;;;;;30.60;16.50;;;;;;;;;;5008794;28;20018;-71
2022/11/15 09:00:51;;;;;;;30.23;16.38;;;;;;;;;;5004836;28;20475;-72
2022/11/15 09:03:16;;;;;;;28.95;15.00;;;;;;;;;;5010592;28;20033;-71
2022/11/15 09:05:41;;;;;;;29.70;14.98;;;;;;;;;;5010047;28;20072;-72
2022/11/15 09:08:06;;;;;;;26.77;14.70;;;;;;;;;;5009515;28;20075;-73
2022/11/15 09:10:32;;;;;;;30.13;15.40;;;;;;;;;;5002954;28;20022;-72
2022/11/15 09:12:57;;;;;;;31.63;16.10;;;;;;;;;;5014238;28;20411;-72
2022/11/15 09:15:22;;;;;;;26.05;14.23;;;;;;;;;;5008829;28;20068;-72
2022/11/15 09:17:48;;;;;;;24.97;14.47;;;;;;;;;;5006284;28;20109;-72
2022/11/15 09:20:13;;;;;;;27.57;14.70;;;;;;;;;;5009927;28;20268;-72
2022/11/15 09:22:38;;;;;;;28.35;14.73;;;;;;;;;;5008525;28;20030;-72
2022/11/15 09:25:04;;;;;;;26.92;14.70;;;;;;;;;;5005311;28;20033;-72
2022/11/15 09:27:30;;;;;;;29.65;14.30;;;;;;;;;;5004688;28;20057;-71
2022/11/15 09:29:55;;;;;;;27.50;15.55;;;;;;;;;;5009134;28;20026;-72
2022/11/15 09:32:22;;;;;;;29.83;15.13;;;;;;;;;;5004243;28;20025;-72
2022/11/15 09:34:47;;;;;;;30.83;14.75;;;;;;;;;;5000591;28;20029;-72
2022/11/15 09:37:13;;;;;;;27.40;14.63;;;;;;;;;;5012747;28;20392;-72
2022/11/15 09:39:38;;;;;;;27.30;15.23;;;;;;;;;;5011001;28;20310;-72
2022/11/15 09:42:05;;;;;;;29.53;15.27;;;;;;;;;;5008131;28;20120;-72
2022/11/15 09:44:53;;;;;;;28.77;14.48;;;;;;;;;;5000554;28;20268;-71
2022/11/15 09:47:36;;;;;;;26.48;15.48;;;;;;;;;;5006841;28;20029;-72
2022/11/15 09:50:07;;;;;;;31.08;16.20;;;;;;;;;;5011904;28;20372;-72
2022/11/15 09:52:33;;;;;;;36.78;15.57;;;;;;;;;;5010557;28;20021;-72
2022/11/15 09:54:58;;;;;;;27.92;15.82;;;;;;;;;;5007225;28;20018;-72
2022/11/15 09:57:29;;;;;;;30.40;16.57;;;;;;;;;;5009816;28;20381;-71
2022/11/15 10:00:17;;;;;;;35.28;16.05;;;;;;;;;;5006984;28;20279;-71
2022/11/15 10:02:43;;;;;;;27.10;14.65;;;;;;;;;;5008578;28;20126;-72
2022/11/15 10:05:10;;;;;;;28.07;14.77;;;;;;;;;;5005177;28;20527;-72
2022/11/15 10:07:36;;;;;;;27.75;14.55;;;;;;;;;;5005267;28;20018;-71
2022/11/15 10:10:09;;;;;;;26.17;14.05;;;;;;;;;;5010642;28;20030;-70
2022/11/15 10:12:34;;;;;;;26.92;13.88;;;;;;;;;;5006984;28;20034;-71
2022/11/15 10:15:05;;;;;;;26.15;14.20;;;;;;;;;;5008512;28;20034;-71
2022/11/15 10:17:40;;;;;;;1128.32;211.80;;;;;;;;;;4992384;28;20034;-70
2022/11/15 10:20:05;;;;;;;44.63;24.02;;;;;;;;;;5009053;28;20045;-72
2022/11/15 10:22:47;;;;;;;28.80;15.40;;;;;;;;;;5007934;28;20026;-70
2022/11/15 10:25:15;;;;;;;27.45;14.30;;;;;;;;;;5007865;28;20420;-72
2022/11/15 10:27:41;;;;;;;27.77;14.77;;;;;;;;;;5007571;28;20112;-72
2022/11/15 10:30:30;;;;;;;35.55;14.38;;;;;;;;;;5003856;28;20030;-72
2022/11/15 10:32:55;;;;;;;23.92;13.93;;;;;;;;;;4988853;28;20488;-73
2022/11/15 10:35:25;;;;;;;27.07;13.97;;;;;;;;;;5012304;28;20109;-73
2022/11/15 10:37:50;;;;;;;23.55;13.52;;;;;;;;;;4987564;28;20168;-72
2022/11/15 10:40:17;;;;;;;26.30;14.45;;;;;;;;;;4986306;28;20109;-72
2022/11/15 10:42:43;;;;;;;24.42;13.80;;;;;;;;;;5005714;28;20045;-72
2022/11/15 10:45:23;;;;;;;24.55;13.88;;;;;;;;;;5010721;28;20511;-72
2022/11/15 10:47:48;;;;;;;29.13;14.60;;;;;;;;;;5002999;28;20077;-71
2022/11/15 10:50:30;;;;;;;26.57;14.23;;;;;;;;;;5009175;28;20499;-70
2022/11/15 10:52:55;;;;;;;23.65;13.88;;;;;;;;;;4991492;28;20388;-71
2022/11/15 10:55:25;;;;;;;27.35;14.30;;;;;;;;;;4986596;28;20025;-72
2022/11/15 10:57:52;;;;;;;29.48;15.27;;;;;;;;;;4989184;28;20042;-72
2022/11/15 11:00:20;;;;;;;24.98;14.55;;;;;;;;;;5011462;28;20045;-72
2022/11/15 11:02:56;;;;;;;30.92;15.63;;;;;;;;;;5005515;28;20057;-71
2022/11/15 11:05:26;;;;;;;28.73;14.95;;;;;;;;;;4988762;28;20376;-71
2022/11/15 11:07:56;;;;;;;25.60;15.38;;;;;;;;;;5004697;28;20631;-71
2022/11/15 11:10:21;;;;;;;32.78;14.02;;;;;;;;;;5002010;28;20029;-72
2022/11/15 11:12:47;;;;;;;28.97;15.33;;;;;;;;;;5008227;28;20037;-71
2022/11/15 11:15:14;;;;;;;28.50;14.63;;;;;;;;;;5008125;28;20784;-71
2022/11/15 11:17:45;;;;;;;31.90;14.63;;;;;;;;;;5008813;28;20379;-72
2022/11/15 11:20:27;;;;;;;24.67;14.18;;;;;;;;;;4993232;28;20480;-72
2022/11/15 11:23:28;;;;;;;33.78;15.02;;;;;;;;;;5004698;28;20169;-72
2022/11/15 11:25:56;;;;;;;29.00;15.55;;;;;;;;;;4961192;28;20100;-72
2022/11/15 11:28:29;;;;;;;37.53;16.30;;;;;;;;;;4962260;28;20082;-72
2022/11/15 11:30:55;;;;;;;35.22;16.10;;;;;;;;;;4936190;28;20718;-72
2022/11/15 11:33:20;;;;;;;31.57;15.87;;;;;;;;;;4962277;28;20175;-72
2022/11/15 11:35:51;;;;;;;32.00;16.63;;;;;;;;;;4955208;28;20034;-72
2022/11/15 11:38:32;;;;;;;30.67;16.45;;;;;;;;;;4958807;28;20319;-72
2022/11/15 11:40:57;;;;;;;30.85;17.23;;;;;;;;;;4967969;28;20516;-71
2022/11/15 11:43:31;;;;;;;29.83;16.23;;;;;;;;;;4963267;28;20030;-71
2022/11/15 11:45:57;;;;;;;35.55;17.33;;;;;;;;;;4970963;28;20035;-70
2022/11/15 11:48:31;;;;;;;36.70;17.00;;;;;;;;;;4943021;28;20038;-72
2022/11/15 11:51:05;;;;;;;33.47;16.48;;;;;;;;;;4972558;28;20070;-70
2022/11/15 11:53:39;;;;;;;30.35;16.25;;;;;;;;;;4967181;28;20042;-71
2022/11/15 11:56:11;;;;;;;31.73;17.85;;;;;;;;;;4964354;28;20047;-71
2022/11/15 11:58:42;;;;;;;33.22;17.55;;;;;;;;;;4964791;28;20023;-70
2022/11/15 12:01:10;;;;;;;35.83;17.42;;;;;;;;;;5006281;28;20465;-70
2022/11/15 12:03:44;;;;;;;38.65;17.98;;;;;;;;;;5010758;28;20037;-70
2022/11/15 12:06:21;;;;;;;32.63;17.85;;;;;;;;;;5004330;28;20035;-70
2022/11/15 12:09:05;;;;;;;32.70;17.92;;;;;;;;;;5003768;28;20477;-70
2022/11/15 12:11:42;;;;;;;36.33;19.02;;;;;;;;;;5006147;28;20030;-70
2022/11/15 12:14:16;;;;;;;33.85;19.30;;;;;;;;;;4987863;28;20044;-71
2022/11/15 12:16:42;;;;;;;38.35;20.63;;;;;;;;;;5011146;28;20030;-70
2022/11/15 12:19:07;;;;;;;35.97;19.40;;;;;;;;;;4989709;28;20122;-71
2022/11/15 12:21:32;;;;;;;35.75;20.45;;;;;;;;;;5011003;28;20085;-69
2022/11/15 12:24:11;;;;;;;36.40;19.13;;;;;;;;;;5010164;28;20022;-71
2022/11/15 12:26:39;;;;;;;35.78;18.85;;;;;;;;;;5005022;28;20026;-70
2022/11/15 12:29:10;;;;;;;32.83;17.77;;;;;;;;;;5009170;28;20115;-71
2022/11/15 12:31:39;;;;;;;34.95;18.92;;;;;;;;;;5008716;28;20022;-70
2022/11/15 12:34:13;;;;;;;35.83;17.45;;;;;;;;;;4992621;28;20029;-70
2022/11/15 12:36:40;;;;;;;32.40;18.08;;;;;;;;;;5009104;28;20061;-70
2022/11/15 12:39:09;;;;;;;33.28;18.30;;;;;;;;;;5016528;28;20033;-70
2022/11/15 12:41:37;;;;;;;40.72;18.90;;;;;;;;;;5009461;28;20388;-71
2022/11/15 12:44:03;;;;;;;30.23;17.45;;;;;;;;;;5006975;28;20479;-70
2022/11/15 12:46:29;;;;;;;37.00;18.38;;;;;;;;;;4991787;28;20048;-70
2022/11/15 12:49:00;;;;;;;33.03;17.08;;;;;;;;;;5006553;28;20480;-71
2022/11/15 12:51:46;;;;;;;32.40;17.88;;;;;;;;;;5002424;28;20089;-71
2022/11/15 12:54:23;;;;;;;29.08;16.92;;;;;;;;;;4995224;28;20045;-70
2022/11/15 12:57:00;;;;;;;34.72;17.70;;;;;;;;;;5007752;28;20060;-70
2022/11/15 12:59:44;;;;;;;34.33;17.35;;;;;;;;;;5005589;28;20026;-70
2022/11/15 13:02:17;;;;;;;31.95;17.60;;;;;;;;;;5004901;28;20030;-70
2022/11/15 13:04:43;;;;;;;33.20;18.30;;;;;;;;;;5013588;28;20451;-70
2022/11/15 13:07:29;;;;;;;34.13;17.07;;;;;;;;;;5010659;28;20029;-70
2022/11/15 13:09:55;;;;;;;36.53;17.50;;;;;;;;;;5009912;28;21015;-70
2022/11/15 13:12:26;;;;;;;32.00;16.30;;;;;;;;;;5011174;28;20144;-70
2022/11/15 13:14:56;;;;;;;33.70;17.45;;;;;;;;;;5009666;28;20034;-70
2022/11/15 13:17:21;;;;;;;29.38;16.42;;;;;;;;;;5005680;28;20034;-70
2022/11/15 13:19:47;;;;;;;29.33;16.00;;;;;;;;;;5010718;28;20037;-70
2022/11/15 13:24:57;;;;;;;27.50;15.85;;;;;;;;;;5006035;28;20057;-70
2022/11/15 13:27:22;;;;;;;27.25;14.90;;;;;;;;;;5006839;28;20672;-70
2022/11/15 13:29:48;;;;;;;30.30;16.52;;;;;;;;;;5005832;28;20037;-70
2022/11/15 13:32:14;;;;;;;31.10;16.52;;;;;;;;;;5002659;28;20033;-71
2022/11/15 13:34:43;;;;;;;29.85;15.65;;;;;;;;;;5012398;28;20044;-72
2022/11/15 13:37:20;;;;;;;31.70;16.27;;;;;;;;;;5007521;28;20034;-72
2022/11/15 13:39:46;;;;;;;29.13;15.57;;;;;;;;;;5004808;28;20440;-72
2022/11/15 13:42:15;;;;;;;29.90;15.63;;;;;;;;;;4990063;28;20547;-71
2022/11/15 13:44:54;;;;;;;27.88;14.85;;;;;;;;;;5004402;28;20033;-72
2022/11/15 13:47:20;;;;;;;31.45;15.55;;;;;;;;;;5006697;28;20026;-71
2022/11/15 13:49:45;;;;;;;28.40;15.90;;;;;;;;;;5010293;28;20084;-71
2022/11/15 13:52:14;;;;;;;29.30;15.83;;;;;;;;;;5006515;28;20048;-71
2022/11/15 13:54:44;;;;;;;30.80;16.13;;;;;;;;;;5007621;28;20025;-71
2022/11/15 13:57:21;;;;;;;34.95;18.10;;;;;;;;;;5006337;28;20056;-70
2022/11/15 13:59:51;;;;;;;34.00;17.38;;;;;;;;;;5006892;28;20499;-68
2022/11/15 14:02:18;;;;;;;31.23;16.45;;;;;;;;;;5013259;28;20125;-71
2022/11/15 14:04:56;;;;;;;33.13;17.33;;;;;;;;;;5005922;28;20017;-71
2022/11/15 14:07:24;;;;;;;33.10;17.67;;;;;;;;;;5005413;28;20435;-71
2022/11/15 14:09:49;;;;;;;37.15;17.92;;;;;;;;;;5010755;28;20076;-70
2022/11/15 14:12:23;;;;;;;37.22;17.75;;;;;;;;;;4989305;28;20483;-72
2022/11/15 14:14:49;;;;;;;37.13;18.70;;;;;;;;;;5009848;28;20088;-71
2022/11/15 14:17:29;;;;;;;38.10;19.30;;;;;;;;;;5010071;28;20034;-71
2022/11/15 14:19:55;;;;;;;40.30;19.77;;;;;;;;;;4990480;28;20773;-72
2022/11/15 14:22:25;;;;;;;39.80;19.25;;;;;;;;;;5008226;28;20084;-71
2022/11/15 14:25:05;;;;;;;34.13;18.27;;;;;;;;;;5006853;28;20072;-69
2022/11/15 14:27:30;;;;;;;;;;;;;;;;;;5009614;28;20022;-69
2022/11/15 14:29:55;;;;;;;33.55;17.42;;;;;;;;;;4989091;28;19917;-70
2022/11/15 14:32:22;;;;;;;37.27;17.87;;;;;;;;;;5009506;28;20096;-71
2022/11/15 14:34:49;;;;;;;38.63;17.20;;;;;;;;;;5011181;28;20539;-71